Terminal Aerodrome Forecast
Issued by NWS Cleveland, OH

Home | Current Version | Previous Version | Graphics & Text | Print | Product List | Glossary On
Versions: 1 2 3 4 5 6 7 8 9 10 11 12 13 14 15 16
000
FTUS41 KCLE 141720
TAFTOL
TAF
KTOL 141720Z 1418/1518 16007KT P6SM BKN080
     FM150300 19012KT P6SM BKN120 WS020/21045KT
     FM150800 22015G25KT P6SM BKN025
     FM151200 23018G30KT P6SM VCSH OVC025
      TEMPO 1514/1516 5SM -SHRA BR OVC020
     FM151600 25025G35KT P6SM BKN035=

USA.gov is the U.S. government's official web portal to all federal, state and local government web resources and services.